Appledore V — WDH4606 — position and weather

sailwx.info

Track history (hours):
 
Tides and Currents Weather Stations Pressure Air Temp Water Temp Dewpoint Dewpoint Depression Visibility Wind Speed Wind Dir Waves Ship Positions

Appledore V

Owner: BaySail, Bay City, MI. More information available from US FCC via Universal Licensing System and Coast Guard Vessel Documentation Center.

Last reported at 2019-Aug-14 20:55 UTC. Time now 2019-Sep-21 00:43 UTC.
Position N 46°47' W 092°03'.
Warning: this ship's position is 37 days out of date.

Length 17 m.

Type: Sailing vessel. MMSI: 366881060.

Date/timePositionNaut miles runAvg speedWind from/ knotsBaromVisibWave heightAir tempDewpointWater temp
2019-Aug-14 20:55N 46°47' W 092°03'2 4.0
2019-Aug-14 20:23N 46°46' W 092°06'0 0.1
2019-Aug-14 19:55N 46°46' W 092°06'0 0.2
2019-Aug-14 19:26N 46°46' W 092°06'0 0.8
2019-Aug-14 19:00N 46°47' W 092°06'0 0.0
2019-Aug-14 18:30N 46°47' W 092°06'0 0.0
2019-Aug-14 18:00N 46°47' W 092°06'0 0.0
2019-Aug-14 17:30N 46°47' W 092°06'0 0.0
2019-Aug-12 18:23N 46°47' W 092°06'0 0.2
2019-Aug-12 17:59N 46°47' W 092°06'0 0.0
2019-Aug-12 17:28N 46°47' W 092°06'0 0.0
2019-Aug-12 16:50N 46°47' W 092°06'0 0.0
2019-Aug-12 16:20N 46°47' W 092°06'0 0.6
2019-Aug-12 16:00N 46°47' W 092°06'1 1.5
2019-Aug-12 15:30N 46°47' W 092°05'1 2.1
2019-Aug-12 15:00N 46°46' W 092°04'1 0.1
2019-Aug-12 00:14N 46°47' W 092°06'0 0.0
2019-Aug-11 23:59N 46°47' W 092°06'0 0.6
2019-Aug-11 23:30N 46°47' W 092°05'1 1.5
2019-Aug-11 22:56N 46°46' W 092°04'1 2.4
2019-Aug-11 22:25N 46°47' W 092°05'1 1.5
2019-Aug-11 22:00N 46°47' W 092°06'0 0.7
2019-Aug-11 21:30N 46°47' W 092°05'1 1.1
2019-Aug-11 20:55N 46°47' W 092°04'1 2.0
2019-Aug-11 20:22N 46°47' W 092°06'0 0.2
2019-Aug-11 19:51N 46°47' W 092°06'0 1.1
2019-Aug-11 19:30N 46°47' W 092°05'0 0.2
2019-Aug-11 18:04N 46°47' W 092°05'0 2.3
2019-Aug-11 18:00N 46°47' W 092°06'0 0.2
2019-Aug-11 17:28N 46°47' W 092°06'0 0.0
2019-Aug-11 16:58N 46°47' W 092°06'0 0.0
2019-Aug-11 16:28N 46°47' W 092°06'0 0.0
2019-Aug-11 15:53N 46°47' W 092°06'0 0.4
2019-Aug-11 15:27N 46°47' W 092°05'2 3.1
2019-Aug-11 14:57N 46°47' W 092°03'0 0.5
2019-Aug-11 14:27N 46°48' W 092°03'2 0.1
2019-Aug-11 01:54N 46°47' W 092°06'0 0.0
2019-Aug-11 01:30N 46°47' W 092°06'0 0.1
2019-Aug-11 01:00N 46°47' W 092°06'  
Track history (hours):
 
Tides and Currents Weather Stations Pressure Air Temp Water Temp Dewpoint Dewpoint Depression Visibility Wind Speed Wind Dir Waves Ship Positions

Appledore V

Owner: BaySail, Bay City, MI. More information available from US FCC via Universal Licensing System and Coast Guard Vessel Documentation Center.

Last reported at 2019-Aug-14 20:55 UTC. Time now 2019-Sep-21 00:43 UTC.
Position N 46°47' W 092°03'.
Warning: this ship's position is 37 days out of date.

Length 17 m.

Type: Sailing vessel. MMSI: 366881060.

Date/timePositionNaut miles runAvg speedWind from/ knotsBaromVisibWave heightAir tempDewpointWater temp
2019-Aug-14 20:55N 46°47' W 092°03'2 4.0
2019-Aug-14 20:23N 46°46' W 092°06'0 0.1
2019-Aug-14 19:55N 46°46' W 092°06'0 0.2
2019-Aug-14 19:26N 46°46' W 092°06'0 0.8
2019-Aug-14 19:00N 46°47' W 092°06'0 0.0
2019-Aug-14 18:30N 46°47' W 092°06'0 0.0
2019-Aug-14 18:00N 46°47' W 092°06'0 0.0
2019-Aug-14 17:30N 46°47' W 092°06'0 0.0
2019-Aug-12 18:23N 46°47' W 092°06'0 0.2
2019-Aug-12 17:59N 46°47' W 092°06'0 0.0
2019-Aug-12 17:28N 46°47' W 092°06'0 0.0
2019-Aug-12 16:50N 46°47' W 092°06'0 0.0
2019-Aug-12 16:20N 46°47' W 092°06'0 0.6
2019-Aug-12 16:00N 46°47' W 092°06'1 1.5
2019-Aug-12 15:30N 46°47' W 092°05'1 2.1
2019-Aug-12 15:00N 46°46' W 092°04'1 0.1
2019-Aug-12 00:14N 46°47' W 092°06'0 0.0
2019-Aug-11 23:59N 46°47' W 092°06'0 0.6
2019-Aug-11 23:30N 46°47' W 092°05'1 1.5
2019-Aug-11 22:56N 46°46' W 092°04'1 2.4
2019-Aug-11 22:25N 46°47' W 092°05'1 1.5
2019-Aug-11 22:00N 46°47' W 092°06'0 0.7
2019-Aug-11 21:30N 46°47' W 092°05'1 1.1
2019-Aug-11 20:55N 46°47' W 092°04'1 2.0
2019-Aug-11 20:22N 46°47' W 092°06'0 0.2
2019-Aug-11 19:51N 46°47' W 092°06'0 1.1
2019-Aug-11 19:30N 46°47' W 092°05'0 0.2
2019-Aug-11 18:04N 46°47' W 092°05'0 2.3
2019-Aug-11 18:00N 46°47' W 092°06'0 0.2
2019-Aug-11 17:28N 46°47' W 092°06'0 0.0
2019-Aug-11 16:58N 46°47' W 092°06'0 0.0
2019-Aug-11 16:28N 46°47' W 092°06'0 0.0
2019-Aug-11 15:53N 46°47' W 092°06'0 0.4
2019-Aug-11 15:27N 46°47' W 092°05'2 3.1
2019-Aug-11 14:57N 46°47' W 092°03'0 0.5
2019-Aug-11 14:27N 46°48' W 092°03'2 0.1
2019-Aug-11 01:54N 46°47' W 092°06'0 0.0
2019-Aug-11 01:30N 46°47' W 092°06'0 0.1
2019-Aug-11 01:00N 46°47' W 092°06'  

Dump ship's entire track history